sensor_id;sensor_type;location;lat;lon;timestamp;pressure;altitude;pressure_sealevel;temperature;humidity
32747;BME280;19118;50.860;13.662;2023-07-29T00:01:36;96352.06;;;17.89;100.00
32747;BME280;19118;50.860;13.662;2023-07-29T00:06:37;96340.44;;;17.68;100.00
32747;BME280;19118;50.860;13.662;2023-07-29T00:11:37;96347.00;;;17.55;100.00
32747;BME280;19118;50.860;13.662;2023-07-29T00:16:38;96353.22;;;17.61;100.00
32747;BME280;19118;50.860;13.662;2023-07-29T00:21:38;96351.88;;;17.58;100.00
32747;BME280;19118;50.860;13.662;2023-07-29T00:26:38;96342.25;;;17.62;100.00
32747;BME280;19118;50.860;13.662;2023-07-29T00:31:39;96335.31;;;17.61;100.00
32747;BME280;19118;50.860;13.662;2023-07-29T00:36:39;96337.72;;;17.63;100.00
32747;BME280;19118;50.860;13.662;2023-07-29T00:41:40;96325.41;;;17.57;100.00
32747;BME280;19118;50.860;13.662;2023-07-29T00:46:40;96322.41;;;17.53;100.00
32747;BME280;19118;50.860;13.662;2023-07-29T00:51:42;96321.31;;;17.49;100.00
32747;BME280;19118;50.860;13.662;2023-07-29T00:56:42;96320.53;;;17.49;100.00
32747;BME280;19118;50.860;13.662;2023-07-29T01:01:42;96319.97;;;17.46;100.00
32747;BME280;19118;50.860;13.662;2023-07-29T01:06:53;96317.00;;;17.43;100.00
32747;BME280;19118;50.860;13.662;2023-07-29T01:12:20;96327.06;;;17.31;100.00
32747;BME280;19118;50.860;13.662;2023-07-29T01:17:23;96330.25;;;17.28;100.00
32747;BME280;19118;50.860;13.662;2023-07-29T01:22:27;96321.69;;;17.26;100.00
32747;BME280;19118;50.860;13.662;2023-07-29T01:27:28;96316.28;;;17.15;100.00
32747;BME280;19118;50.860;13.662;2023-07-29T01:32:43;96312.19;;;17.03;100.00
32747;BME280;19118;50.860;13.662;2023-07-29T01:37:50;96313.50;;;17.00;100.00
32747;BME280;19118;50.860;13.662;2023-07-29T01:42:52;96311.94;;;17.09;100.00
32747;BME280;19118;50.860;13.662;2023-07-29T01:47:53;96304.50;;;17.11;100.00
32747;BME280;19118;50.860;13.662;2023-07-29T01:52:53;96302.44;;;17.24;100.00
32747;BME280;19118;50.860;13.662;2023-07-29T01:57:53;96304.88;;;17.25;100.00
32747;BME280;19118;50.860;13.662;2023-07-29T02:02:55;96306.69;;;17.20;100.00
32747;BME280;19118;50.860;13.662;2023-07-29T02:07:56;96307.72;;;17.13;100.00
32747;BME280;19118;50.860;13.662;2023-07-29T02:12:56;96316.41;;;16.99;100.00
32747;BME280;19118;50.860;13.662;2023-07-29T02:17:56;96313.97;;;16.92;100.00
32747;BME280;19118;50.860;13.662;2023-07-29T02:22:59;96317.41;;;16.87;100.00
32747;BME280;19118;50.860;13.662;2023-07-29T02:27:59;96326.13;;;16.78;100.00
32747;BME280;19118;50.860;13.662;2023-07-29T02:33:00;96334.06;;;16.73;100.00
32747;BME280;19118;50.860;13.662;2023-07-29T02:38:01;96330.97;;;16.86;100.00
32747;BME280;19118;50.860;13.662;2023-07-29T02:43:02;96324.28;;;17.15;100.00
32747;BME280;19118;50.860;13.662;2023-07-29T02:48:02;96331.88;;;17.29;100.00
32747;BME280;19118;50.860;13.662;2023-07-29T02:53:02;96322.88;;;17.40;100.00
32747;BME280;19118;50.860;13.662;2023-07-29T02:58:03;96330.34;;;17.38;100.00
32747;BME280;19118;50.860;13.662;2023-07-29T03:03:03;96335.09;;;17.31;100.00
32747;BME280;19118;50.860;13.662;2023-07-29T03:08:04;96337.72;;;17.26;100.00
32747;BME280;19118;50.860;13.662;2023-07-29T03:13:04;96341.22;;;17.26;100.00
32747;BME280;19118;50.860;13.662;2023-07-29T03:18:04;96344.78;;;17.42;100.00
32747;BME280;19118;50.860;13.662;2023-07-29T03:23:05;96343.34;;;17.66;100.00
32747;BME280;19118;50.860;13.662;2023-07-29T03:28:05;96331.19;;;17.86;100.00
32747;BME280;19118;50.860;13.662;2023-07-29T03:33:06;96327.53;;;18.02;100.00
32747;BME280;19118;50.860;13.662;2023-07-29T03:38:06;96325.94;;;18.11;100.00
32747;BME280;19118;50.860;13.662;2023-07-29T03:43:07;96318.22;;;18.15;100.00
32747;BME280;19118;50.860;13.662;2023-07-29T03:48:07;96324.69;;;18.24;100.00
32747;BME280;19118;50.860;13.662;2023-07-29T03:53:08;96319.34;;;18.29;100.00
32747;BME280;19118;50.860;13.662;2023-07-29T03:58:11;96322.81;;;18.24;100.00
32747;BME280;19118;50.860;13.662;2023-07-29T04:03:12;96321.78;;;18.41;100.00
32747;BME280;19118;50.860;13.662;2023-07-29T04:08:12;96321.34;;;18.74;100.00
32747;BME280;19118;50.860;13.662;2023-07-29T04:13:13;96314.94;;;18.80;100.00
32747;BME280;19118;50.860;13.662;2023-07-29T04:18:13;96317.63;;;18.96;100.00
32747;BME280;19118;50.860;13.662;2023-07-29T04:23:14;96321.91;;;19.12;100.00
32747;BME280;19118;50.860;13.662;2023-07-29T04:28:15;96329.41;;;19.20;100.00
32747;BME280;19118;50.860;13.662;2023-07-29T04:33:15;96316.53;;;19.22;100.00
32747;BME280;19118;50.860;13.662;2023-07-29T04:38:16;96318.69;;;19.40;100.00
32747;BME280;19118;50.860;13.662;2023-07-29T04:43:16;96332.31;;;19.54;100.00
32747;BME280;19118;50.860;13.662;2023-07-29T04:48:16;96324.84;;;19.56;100.00
32747;BME280;19118;50.860;13.662;2023-07-29T04:53:17;96322.44;;;19.60;100.00
32747;BME280;19118;50.860;13.662;2023-07-29T04:58:17;96314.38;;;19.65;100.00
32747;BME280;19118;50.860;13.662;2023-07-29T05:03:18;96314.91;;;19.72;100.00
32747;BME280;19118;50.860;13.662;2023-07-29T05:08:18;96321.84;;;19.83;100.00
32747;BME280;19118;50.860;13.662;2023-07-29T05:13:19;96324.53;;;19.83;100.00
32747;BME280;19118;50.860;13.662;2023-07-29T05:18:20;96310.53;;;19.96;100.00
32747;BME280;19118;50.860;13.662;2023-07-29T05:23:20;96314.56;;;19.89;100.00
32747;BME280;19118;50.860;13.662;2023-07-29T05:28:20;96318.00;;;20.10;100.00
32747;BME280;19118;50.860;13.662;2023-07-29T05:33:21;96304.88;;;20.62;100.00
32747;BME280;19118;50.860;13.662;2023-07-29T05:38:21;96304.06;;;21.64;100.00
32747;BME280;19118;50.860;13.662;2023-07-29T05:43:24;96309.38;;;21.69;100.00
32747;BME280;19118;50.860;13.662;2023-07-29T05:48:24;96302.47;;;21.63;100.00
32747;BME280;19118;50.860;13.662;2023-07-29T05:53:25;96296.78;;;21.89;100.00
32747;BME280;19118;50.860;13.662;2023-07-29T05:58:25;96300.56;;;21.88;100.00
32747;BME280;19118;50.860;13.662;2023-07-29T06:03:26;96306.19;;;22.15;100.00
32747;BME280;19118;50.860;13.662;2023-07-29T06:08:27;96301.38;;;22.55;100.00
32747;BME280;19118;50.860;13.662;2023-07-29T06:13:28;96296.91;;;22.64;100.00
32747;BME280;19118;50.860;13.662;2023-07-29T06:18:29;96301.94;;;22.33;100.00
32747;BME280;19118;50.860;13.662;2023-07-29T06:23:29;96297.91;;;22.30;100.00
32747;BME280;19118;50.860;13.662;2023-07-29T06:28:30;96303.19;;;21.93;100.00
32747;BME280;19118;50.860;13.662;2023-07-29T06:33:30;96303.22;;;22.17;100.00
32747;BME280;19118;50.860;13.662;2023-07-29T06:38:30;96313.25;;;21.58;100.00
32747;BME280;19118;50.860;13.662;2023-07-29T06:43:31;96312.44;;;22.34;100.00
32747;BME280;19118;50.860;13.662;2023-07-29T06:48:31;96327.25;;;23.12;100.00
32747;BME280;19118;50.860;13.662;2023-07-29T06:53:32;96324.66;;;23.21;100.00
32747;BME280;19118;50.860;13.662;2023-07-29T06:58:32;96335.00;;;23.33;100.00
32747;BME280;19118;50.860;13.662;2023-07-29T07:03:33;96327.53;;;23.11;100.00
32747;BME280;19118;50.860;13.662;2023-07-29T07:08:33;96319.03;;;23.69;100.00
32747;BME280;19118;50.860;13.662;2023-07-29T07:13:34;96322.97;;;23.90;100.00
32747;BME280;19118;50.860;13.662;2023-07-29T07:18:34;96308.25;;;24.24;100.00
32747;BME280;19118;50.860;13.662;2023-07-29T07:23:34;96298.56;;;24.36;100.00
32747;BME280;19118;50.860;13.662;2023-07-29T07:28:35;96287.97;;;25.21;88.63
32747;BME280;19118;50.860;13.662;2023-07-29T07:33:35;96300.91;;;25.55;85.67
32747;BME280;19118;50.860;13.662;2023-07-29T07:38:35;96291.31;;;25.18;86.54
32747;BME280;19118;50.860;13.662;2023-07-29T07:43:36;96298.09;;;24.93;86.05
32747;BME280;19118;50.860;13.662;2023-07-29T07:48:38;96285.44;;;24.16;91.00
32747;BME280;19118;50.860;13.662;2023-07-29T07:53:39;96281.31;;;24.19;90.03
32747;BME280;19118;50.860;13.662;2023-07-29T07:58:40;96280.00;;;24.80;87.25
32747;BME280;19118;50.860;13.662;2023-07-29T08:03:40;96278.28;;;25.73;82.94
32747;BME280;19118;50.860;13.662;2023-07-29T08:08:41;96265.13;;;25.36;79.30
32747;BME280;19118;50.860;13.662;2023-07-29T08:13:41;96258.56;;;25.90;80.40
32747;BME280;19118;50.860;13.662;2023-07-29T08:18:41;96266.34;;;25.52;79.60
32747;BME280;19118;50.860;13.662;2023-07-29T08:23:42;96251.22;;;25.91;78.08
32747;BME280;19118;50.860;13.662;2023-07-29T08:28:42;96257.13;;;25.84;77.53
32747;BME280;19118;50.860;13.662;2023-07-29T08:33:43;96249.25;;;26.22;75.70
32747;BME280;19118;50.860;13.662;2023-07-29T08:38:43;96243.59;;;27.02;74.16
32747;BME280;19118;50.860;13.662;2023-07-29T08:43:52;96253.63;;;26.75;73.04
32747;BME280;19118;50.860;13.662;2023-07-29T08:48:53;96259.81;;;26.50;72.61
32747;BME280;19118;50.860;13.662;2023-07-29T08:53:55;96255.25;;;26.02;74.76
32747;BME280;19118;50.860;13.662;2023-07-29T08:58:56;96269.38;;;26.38;74.27
32747;BME280;19118;50.860;13.662;2023-07-29T09:03:56;96262.06;;;26.99;72.73
32747;BME280;19118;50.860;13.662;2023-07-29T09:08:58;96271.19;;;27.04;69.19
32747;BME280;19118;50.860;13.662;2023-07-29T09:13:59;96264.53;;;27.56;68.14
32747;BME280;19118;50.860;13.662;2023-07-29T09:19:03;96265.19;;;27.53;68.42
32747;BME280;19118;50.860;13.662;2023-07-29T09:24:04;96260.47;;;27.89;64.09
32747;BME280;19118;50.860;13.662;2023-07-29T09:29:05;96258.94;;;27.70;65.79
32747;BME280;19118;50.860;13.662;2023-07-29T09:34:05;96255.69;;;27.13;68.37
32747;BME280;19118;50.860;13.662;2023-07-29T09:39:11;96249.31;;;26.74;68.93
32747;BME280;19118;50.860;13.662;2023-07-29T09:44:12;96261.13;;;27.13;67.13
32747;BME280;19118;50.860;13.662;2023-07-29T09:49:12;96267.34;;;26.70;69.71
32747;BME280;19118;50.860;13.662;2023-07-29T09:54:12;96267.81;;;25.89;82.24
32747;BME280;19118;50.860;13.662;2023-07-29T09:59:19;96255.44;;;23.90;100.00
32747;BME280;19118;50.860;13.662;2023-07-29T10:04:19;96233.47;;;24.19;100.00
32747;BME280;19118;50.860;13.662;2023-07-29T10:09:20;96228.75;;;24.97;100.00
32747;BME280;19118;50.860;13.662;2023-07-29T10:14:21;96231.84;;;26.06;100.00
32747;BME280;19118;50.860;13.662;2023-07-29T10:19:24;96224.06;;;26.30;100.00
32747;BME280;19118;50.860;13.662;2023-07-29T10:24:30;96246.44;;;27.05;91.96
32747;BME280;19118;50.860;13.662;2023-07-29T10:29:31;96223.91;;;27.13;74.63
32747;BME280;19118;50.860;13.662;2023-07-29T10:34:33;96241.66;;;26.42;74.46
32747;BME280;19118;50.860;13.662;2023-07-29T10:39:40;96256.09;;;24.09;100.00
32747;BME280;19118;50.860;13.662;2023-07-29T10:49:54;96228.44;;;21.85;100.00
32747;BME280;19118;50.860;13.662;2023-07-29T10:59:56;96240.00;;;23.03;100.00
32747;BME280;19118;50.860;13.662;2023-07-29T11:04:57;96230.00;;;23.04;100.00
32747;BME280;19118;50.860;13.662;2023-07-29T11:10:02;96216.47;;;24.19;100.00
32747;BME280;19118;50.860;13.662;2023-07-29T11:15:14;96219.91;;;25.05;100.00
32747;BME280;19118;50.860;13.662;2023-07-29T11:20:15;96221.75;;;24.74;100.00
32747;BME280;19118;50.860;13.662;2023-07-29T11:25:17;96211.25;;;25.25;100.00
32747;BME280;19118;50.860;13.662;2023-07-29T11:30:18;96204.81;;;26.40;100.00
32747;BME280;19118;50.860;13.662;2023-07-29T11:35:19;96207.78;;;26.99;96.22
32747;BME280;19118;50.860;13.662;2023-07-29T11:40:21;96207.94;;;26.25;98.33
32747;BME280;19118;50.860;13.662;2023-07-29T11:45:22;96209.56;;;26.69;100.00
32747;BME280;19118;50.860;13.662;2023-07-29T11:50:23;96207.03;;;26.47;98.73
32747;BME280;19118;50.860;13.662;2023-07-29T11:55:24;96214.47;;;26.24;100.00
32747;BME280;19118;50.860;13.662;2023-07-29T12:00:25;96207.75;;;25.56;97.41
32747;BME280;19118;50.860;13.662;2023-07-29T12:05:26;96214.22;;;25.38;90.23
32747;BME280;19118;50.860;13.662;2023-07-29T12:10:27;96209.41;;;25.35;87.81
32747;BME280;19118;50.860;13.662;2023-07-29T12:15:28;96201.09;;;25.62;85.93
32747;BME280;19118;50.860;13.662;2023-07-29T12:20:29;96202.09;;;25.75;86.41
32747;BME280;19118;50.860;13.662;2023-07-29T12:25:30;96194.94;;;25.48;85.00
32747;BME280;19118;50.860;13.662;2023-07-29T12:30:31;96200.78;;;25.64;87.73
32747;BME280;19118;50.860;13.662;2023-07-29T12:35:37;96196.53;;;25.71;91.44
32747;BME280;19118;50.860;13.662;2023-07-29T12:40:38;96171.75;;;26.21;89.75
32747;BME280;19118;50.860;13.662;2023-07-29T12:45:40;96163.75;;;27.03;84.35
32747;BME280;19118;50.860;13.662;2023-07-29T12:50:41;96166.19;;;27.42;79.48
32747;BME280;19118;50.860;13.662;2023-07-29T12:55:42;96145.47;;;27.59;76.37
32747;BME280;19118;50.860;13.662;2023-07-29T13:00:42;96140.97;;;27.33;73.50
32747;BME280;19118;50.860;13.662;2023-07-29T13:05:42;96148.00;;;27.34;75.99
32747;BME280;19118;50.860;13.662;2023-07-29T13:10:43;96135.19;;;26.88;74.52
32747;BME280;19118;50.860;13.662;2023-07-29T13:15:43;96130.94;;;26.44;76.25
32747;BME280;19118;50.860;13.662;2023-07-29T13:20:43;96119.78;;;26.54;78.23
32747;BME280;19118;50.860;13.662;2023-07-29T13:25:44;96144.97;;;26.46;79.87
32747;BME280;19118;50.860;13.662;2023-07-29T13:30:45;96163.00;;;26.59;77.01
32747;BME280;19118;50.860;13.662;2023-07-29T13:35:45;96172.09;;;26.46;74.16
32747;BME280;19118;50.860;13.662;2023-07-29T13:40:45;96174.44;;;25.95;74.40
32747;BME280;19118;50.860;13.662;2023-07-29T13:45:46;96163.31;;;26.75;73.56
32747;BME280;19118;50.860;13.662;2023-07-29T13:50:48;96176.56;;;26.59;69.18
32747;BME280;19118;50.860;13.662;2023-07-29T13:55:49;96155.34;;;26.18;66.34
32747;BME280;19118;50.860;13.662;2023-07-29T14:00:49;96150.97;;;25.82;70.41
32747;BME280;19118;50.860;13.662;2023-07-29T14:05:50;96157.78;;;25.71;73.51
32747;BME280;19118;50.860;13.662;2023-07-29T14:10:50;96145.63;;;25.51;73.66
32747;BME280;19118;50.860;13.662;2023-07-29T14:15:50;96151.16;;;25.86;71.44
32747;BME280;19118;50.860;13.662;2023-07-29T14:20:50;96155.53;;;25.64;69.20
32747;BME280;19118;50.860;13.662;2023-07-29T14:25:51;96136.94;;;25.71;73.70
32747;BME280;19118;50.860;13.662;2023-07-29T14:30:52;96143.09;;;25.63;70.69
32747;BME280;19118;50.860;13.662;2023-07-29T14:35:52;96130.59;;;26.02;69.14
32747;BME280;19118;50.860;13.662;2023-07-29T14:40:52;96128.22;;;26.00;69.61
32747;BME280;19118;50.860;13.662;2023-07-29T14:45:54;96118.03;;;26.06;69.67
32747;BME280;19118;50.860;13.662;2023-07-29T14:50:55;96117.66;;;25.90;64.78
32747;BME280;19118;50.860;13.662;2023-07-29T14:55:55;96119.72;;;25.76;65.82
32747;BME280;19118;50.860;13.662;2023-07-29T15:00:55;96114.66;;;26.09;65.75
32747;BME280;19118;50.860;13.662;2023-07-29T15:05:56;96116.56;;;26.00;63.63
32747;BME280;19118;50.860;13.662;2023-07-29T15:10:58;96121.03;;;26.13;63.18
32747;BME280;19118;50.860;13.662;2023-07-29T15:15:58;96122.28;;;25.90;64.16
32747;BME280;19118;50.860;13.662;2023-07-29T15:20:59;96109.06;;;26.14;63.10
32747;BME280;19118;50.860;13.662;2023-07-29T15:26:00;96109.56;;;26.07;61.56
32747;BME280;19118;50.860;13.662;2023-07-29T15:31:01;96105.09;;;26.11;64.04
32747;BME280;19118;50.860;13.662;2023-07-29T15:36:01;96111.47;;;26.59;63.79
32747;BME280;19118;50.860;13.662;2023-07-29T15:41:02;96104.94;;;26.08;64.10
32747;BME280;19118;50.860;13.662;2023-07-29T15:46:02;96129.31;;;25.99;63.32
32747;BME280;19118;50.860;13.662;2023-07-29T15:51:03;96128.09;;;25.57;64.51
32747;BME280;19118;50.860;13.662;2023-07-29T15:56:03;96132.81;;;25.82;64.18
32747;BME280;19118;50.860;13.662;2023-07-29T16:01:03;96143.94;;;25.72;64.44
32747;BME280;19118;50.860;13.662;2023-07-29T16:06:04;96144.94;;;25.45;67.41
32747;BME280;19118;50.860;13.662;2023-07-29T16:11:05;96147.25;;;25.21;67.93
32747;BME280;19118;50.860;13.662;2023-07-29T16:16:05;96146.81;;;25.28;68.90
32747;BME280;19118;50.860;13.662;2023-07-29T16:21:06;96167.63;;;25.18;70.17
32747;BME280;19118;50.860;13.662;2023-07-29T16:26:06;96153.78;;;25.20;72.26
32747;BME280;19118;50.860;13.662;2023-07-29T16:31:07;96167.31;;;25.20;73.50
32747;BME280;19118;50.860;13.662;2023-07-29T16:36:07;96178.34;;;25.01;74.93
32747;BME280;19118;50.860;13.662;2023-07-29T16:41:07;96162.97;;;24.65;75.89
32747;BME280;19118;50.860;13.662;2023-07-29T16:46:08;96172.13;;;24.56;77.42
32747;BME280;19118;50.860;13.662;2023-07-29T16:51:08;96181.25;;;24.24;78.51
32747;BME280;19118;50.860;13.662;2023-07-29T16:56:10;96243.56;;;22.99;75.38
32747;BME280;19118;50.860;13.662;2023-07-29T17:01:11;96270.50;;;21.28;84.80
32747;BME280;19118;50.860;13.662;2023-07-29T17:06:11;96259.63;;;20.75;93.98
32747;BME280;19118;50.860;13.662;2023-07-29T17:11:11;96246.38;;;20.49;100.00
32747;BME280;19118;50.860;13.662;2023-07-29T17:16:12;96257.69;;;20.36;100.00
32747;BME280;19118;50.860;13.662;2023-07-29T17:21:12;96246.13;;;19.96;100.00
32747;BME280;19118;50.860;13.662;2023-07-29T17:26:13;96259.66;;;19.61;100.00
32747;BME280;19118;50.860;13.662;2023-07-29T17:31:13;96293.44;;;19.52;100.00
32747;BME280;19118;50.860;13.662;2023-07-29T17:36:14;96292.13;;;19.39;100.00
32747;BME280;19118;50.860;13.662;2023-07-29T17:41:14;96293.25;;;18.92;100.00
32747;BME280;19118;50.860;13.662;2023-07-29T17:46:14;96287.31;;;19.31;100.00
32747;BME280;19118;50.860;13.662;2023-07-29T17:51:18;96305.81;;;19.12;100.00
32747;BME280;19118;50.860;13.662;2023-07-29T17:56:18;96279.00;;;19.37;100.00
32747;BME280;19118;50.860;13.662;2023-07-29T18:01:19;96270.91;;;19.53;100.00
32747;BME280;19118;50.860;13.662;2023-07-29T18:06:19;96267.63;;;19.81;100.00
32747;BME280;19118;50.860;13.662;2023-07-29T18:11:19;96275.91;;;19.95;100.00
32747;BME280;19118;50.860;13.662;2023-07-29T18:16:20;96276.22;;;19.83;100.00
32747;BME280;19118;50.860;13.662;2023-07-29T18:21:20;96276.56;;;19.51;100.00
32747;BME280;19118;50.860;13.662;2023-07-29T18:26:21;96273.63;;;19.32;100.00
32747;BME280;19118;50.860;13.662;2023-07-29T18:31:21;96269.63;;;18.89;100.00
32747;BME280;19118;50.860;13.662;2023-07-29T18:36:22;96264.50;;;18.57;100.00
32747;BME280;19118;50.860;13.662;2023-07-29T18:41:23;96265.00;;;18.28;100.00
32747;BME280;19118;50.860;13.662;2023-07-29T18:46:24;96270.47;;;17.86;100.00
32747;BME280;19118;50.860;13.662;2023-07-29T18:51:28;96258.59;;;17.67;100.00
32747;BME280;19118;50.860;13.662;2023-07-29T18:56:28;96279.56;;;17.43;100.00
32747;BME280;19118;50.860;13.662;2023-07-29T19:01:28;96280.56;;;17.27;100.00
32747;BME280;19118;50.860;13.662;2023-07-29T19:06:29;96285.75;;;17.06;100.00
32747;BME280;19118;50.860;13.662;2023-07-29T19:11:29;96274.97;;;16.96;100.00
32747;BME280;19118;50.860;13.662;2023-07-29T19:16:29;96277.03;;;16.84;100.00
32747;BME280;19118;50.860;13.662;2023-07-29T19:21:30;96281.22;;;16.75;100.00
32747;BME280;19118;50.860;13.662;2023-07-29T19:26:31;96292.53;;;16.87;100.00
32747;BME280;19118;50.860;13.662;2023-07-29T19:31:31;96286.56;;;16.75;100.00
32747;BME280;19118;50.860;13.662;2023-07-29T19:36:32;96283.88;;;16.75;100.00
32747;BME280;19118;50.860;13.662;2023-07-29T19:41:32;96288.41;;;16.74;100.00
32747;BME280;19118;50.860;13.662;2023-07-29T19:46:33;96284.53;;;16.60;100.00
32747;BME280;19118;50.860;13.662;2023-07-29T19:51:33;96288.00;;;16.60;100.00
32747;BME280;19118;50.860;13.662;2023-07-29T19:56:34;96283.75;;;16.65;100.00
32747;BME280;19118;50.860;13.662;2023-07-29T20:01:34;96284.78;;;16.58;100.00
32747;BME280;19118;50.860;13.662;2023-07-29T20:06:36;96299.72;;;16.54;100.00
32747;BME280;19118;50.860;13.662;2023-07-29T20:11:37;96309.31;;;16.55;100.00
32747;BME280;19118;50.860;13.662;2023-07-29T20:16:37;96312.19;;;16.49;100.00
32747;BME280;19118;50.860;13.662;2023-07-29T20:21:37;96313.44;;;16.41;100.00
32747;BME280;19118;50.860;13.662;2023-07-29T20:26:38;96309.66;;;16.37;100.00
32747;BME280;19118;50.860;13.662;2023-07-29T20:31:38;96310.47;;;16.38;100.00
32747;BME280;19118;50.860;13.662;2023-07-29T20:36:39;96315.19;;;16.30;100.00
32747;BME280;19118;50.860;13.662;2023-07-29T20:41:39;96325.03;;;16.30;100.00
32747;BME280;19118;50.860;13.662;2023-07-29T20:46:39;96327.63;;;16.20;100.00
32747;BME280;19118;50.860;13.662;2023-07-29T20:51:40;96324.97;;;16.20;100.00
32747;BME280;19118;50.860;13.662;2023-07-29T20:56:40;96324.88;;;16.15;100.00
32747;BME280;19118;50.860;13.662;2023-07-29T21:01:41;96328.78;;;16.07;100.00
32747;BME280;19118;50.860;13.662;2023-07-29T21:06:42;96336.06;;;16.12;100.00
32747;BME280;19118;50.860;13.662;2023-07-29T21:11:42;96337.13;;;16.11;100.00
32747;BME280;19118;50.860;13.662;2023-07-29T21:16:43;96338.78;;;16.17;100.00
32747;BME280;19118;50.860;13.662;2023-07-29T21:21:43;96340.88;;;16.15;100.00
32747;BME280;19118;50.860;13.662;2023-07-29T21:26:45;96330.47;;;16.13;100.00
32747;BME280;19118;50.860;13.662;2023-07-29T21:31:46;96326.91;;;16.08;100.00
32747;BME280;19118;50.860;13.662;2023-07-29T21:36:46;96329.97;;;16.16;100.00
32747;BME280;19118;50.860;13.662;2023-07-29T21:41:47;96335.50;;;16.10;100.00
32747;BME280;19118;50.860;13.662;2023-07-29T21:46:49;96319.94;;;16.01;100.00
32747;BME280;19118;50.860;13.662;2023-07-29T21:51:53;96328.91;;;15.95;100.00
32747;BME280;19118;50.860;13.662;2023-07-29T21:56:53;96338.47;;;15.91;100.00
32747;BME280;19118;50.860;13.662;2023-07-29T22:01:53;96339.09;;;15.98;100.00
32747;BME280;19118;50.860;13.662;2023-07-29T22:06:54;96344.44;;;15.98;100.00
32747;BME280;19118;50.860;13.662;2023-07-29T22:11:54;96341.13;;;15.91;100.00
32747;BME280;19118;50.860;13.662;2023-07-29T22:16:54;96337.41;;;15.92;100.00
32747;BME280;19118;50.860;13.662;2023-07-29T22:21:55;96342.31;;;15.79;100.00
32747;BME280;19118;50.860;13.662;2023-07-29T22:26:55;96356.94;;;15.76;100.00
32747;BME280;19118;50.860;13.662;2023-07-29T22:31:56;96355.34;;;15.75;100.00
32747;BME280;19118;50.860;13.662;2023-07-29T22:36:56;96363.78;;;15.72;100.00
32747;BME280;19118;50.860;13.662;2023-07-29T22:41:56;96354.28;;;15.76;100.00
32747;BME280;19118;50.860;13.662;2023-07-29T22:46:57;96355.94;;;15.82;100.00
32747;BME280;19118;50.860;13.662;2023-07-29T22:51:57;96353.84;;;15.84;100.00
32747;BME280;19118;50.860;13.662;2023-07-29T22:56:57;96351.75;;;15.86;100.00
32747;BME280;19118;50.860;13.662;2023-07-29T23:01:59;96345.91;;;15.89;100.00
32747;BME280;19118;50.860;13.662;2023-07-29T23:06:59;96346.84;;;15.78;100.00
32747;BME280;19118;50.860;13.662;2023-07-29T23:12:00;96359.66;;;15.81;100.00
32747;BME280;19118;50.860;13.662;2023-07-29T23:17:01;96365.81;;;15.82;100.00
32747;BME280;19118;50.860;13.662;2023-07-29T23:22:01;96369.81;;;15.84;100.00
32747;BME280;19118;50.860;13.662;2023-07-29T23:27:01;96375.16;;;15.84;100.00
32747;BME280;19118;50.860;13.662;2023-07-29T23:32:02;96372.19;;;15.81;100.00
32747;BME280;19118;50.860;13.662;2023-07-29T23:37:03;96368.56;;;15.87;100.00
32747;BME280;19118;50.860;13.662;2023-07-29T23:42:03;96375.81;;;15.91;100.00
32747;BME280;19118;50.860;13.662;2023-07-29T23:47:04;96369.81;;;15.84;100.00
32747;BME280;19118;50.860;13.662;2023-07-29T23:52:05;96369.34;;;15.87;100.00
32747;BME280;19118;50.860;13.662;2023-07-29T23:57:05;96355.28;;;15.92;100.00
